Wednesday, April 25, 2018, 12:09 AM CDT
Back to Local

KMHK, Manhattan Regional Airport

Location: Ogden, KS, United States Lat: 39.133
Local Time: 12:09 AM CDT ( 5:09 GMT) Lon: -96.683
Time Zone: US/Central Elev: 1056 ft

Show me the last for .
Show Decoded

2018-04-24 23:52 METAR KMHK 250452Z AUTO 33007KT 10SM OVC011 11/08 A3021 RMK AO2 SLP227 T01060078
                 =
2018-04-24 22:52 METAR KMHK 250352Z AUTO VRB06KT 10SM OVC012 12/08 A3020 RMK AO2 SLP226 T01170083
                 =
2018-04-24 21:52 METAR KMHK 250252Z AUTO 35004KT 10SM BKN012 OVC090 12/09 A3019 RMK AO2 SLP223
                 T01220089 53013 =
2018-04-24 20:52 METAR KMHK 250152Z VRB04KT 10SM OVC095 13/09 A3017 RMK AO2 SLP217 T01280094 =
2018-04-24 19:52 METAR KMHK 250052Z 33005KT 10SM OVC100 13/09 A3016 RMK AO2 SLP216 T01330089 =
2018-04-24 18:52 METAR KMHK 242352Z VRB06KT 10SM FEW070 FEW080 OVC100 14/09 A3015 RMK AO2 SLP214
                 60000 T01440089 10267 20139 51008 =
2018-04-24 17:52 METAR KMHK 242252Z 35011G20KT 10SM BKN110 15/08 A3014 RMK AO2 SLP210 T01500083 =
2018-04-24 16:52 METAR KMHK 242152Z 35007G18KT 10SM BKN110 17/08 A3015 RMK AO2 RAB00E16 SLP209
                 P0000 T01670078 =
2018-04-24 15:52 METAR KMHK 242052Z 33009G22KT 290V010 10SM SCT090 OVC110 17/07 A3013 RMK AO2 PK
                 WND 32037/2000 SLP205 T01720072 53006 =
2018-04-24 14:52 METAR KMHK 241952Z 36004KT 10SM SCT100 24/04 A3009 RMK AO2 SLP187 T02390039 =
2018-04-24 13:52 METAR KMHK 241852Z VRB03KT 10SM CLR 24/01 A3010 RMK AO2 SLP192 T02440006 =
2018-04-24 12:52 METAR KMHK 241752Z VRB03KT 10SM CLR 25/01 A3011 RMK AO2 SLP194 T02500006 10250
                 20039 58010 =
2018-04-24 11:52 METAR KMHK 241652Z VRB03KT 10SM CLR 23/03 A3014 RMK AO2 SLP203 T02280033 =
2018-04-24 10:52 METAR KMHK 241552Z 00000KT 8SM CLR 19/06 A3014 RMK AO2 SLP206 T01940056 =
2018-04-24 09:52 METAR KMHK 241452Z 08003KT 8SM CLR 16/05 A3014 RMK AO2 SLP206 T01610050 50008 =
2018-04-24 08:52 METAR KMHK 241352Z 00000KT 8SM CLR 11/06 A3015 RMK AO2 SLP211 T01110061 =
2018-04-24 07:52 METAR KMHK 241252Z 00000KT 7SM CLR 07/04 A3014 RMK AO2 SLP205 T00720044 =
2018-04-24 06:52 METAR KMHK 241152Z 00000KT 7SM CLR 04/02 A3012 RMK AO2 SLP198 T00390022 10083
                 20033 53008 =
2018-04-24 05:52 METAR KMHK 241052Z AUTO 00000KT 10SM CLR 04/02 A3010 RMK AO2 SLP192 T00390022 =
2018-04-24 04:52 METAR KMHK 240952Z AUTO 00000KT 10SM CLR 06/03 A3010 RMK AO2 SLP191 T00560028 =
2018-04-24 03:52 METAR KMHK 240852Z AUTO 00000KT 10SM CLR 06/02 A3009 RMK AO2 SLP189 T00560022
                 51007 =
2018-04-24 02:52 METAR KMHK 240752Z AUTO 00000KT 10SM CLR 06/03 A3009 RMK AO2 SLP189 T00560028 =
2018-04-24 01:52 METAR KMHK 240652Z AUTO 00000KT 10SM CLR 06/03 A3009 RMK AO2 SLP187 T00560033 =
2018-04-24 00:52 METAR KMHK 240552Z AUTO 00000KT 10SM CLR 07/03 A3007 RMK AO2 SLP181 T00720033
                 10228 20067 402390039 52008 =

Support USWX by starting your Amazon purchase here.